Riverside Municipal Airport Riverside US
ICAO: KRAL
IATA: RAL
Category: Medium
Scheduled Services: No

Elevation: 819 ft
TransAlt. 18000 ft.

Airport Communications:
SOCAL APP/DEP:135.4
ATIS:128.8
CTAF:121
GND:121.7
RDO:25.54
RDO:122.05
TWR:121
UNICOM:122.95

KRAL Zoom In..

Runways:

(A) RW 09 length 5401 ft width 100 ft
ILS 110.90 / hdg 89

(B) RW 16 length 2850 ft width 48 ft
---- / hdg 165

(C) RW 27 length 5401 ft width 100 ft
---- / hdg 269

(D) RW 34 length 2850 ft width 48 ft
---- / hdg 345

Location; KRAL
Day. 30 / Time. 21.53 Zulu
* Altimeter: 29.93
* Temperature: 27° c. 80.6°f.
* Wind from: VRB° Speed 04 kn.
Dewpoint: 08° c.
Visibility: 10 Statute Miles.
Clouds: Few 6000 ft.

KRAL 302153Z VRB04KT 10SM FEW060 27/08 A2993 RMK AO2 SLP119 T02720078


Wind From VRB°
Speed 04 kn.

 
 
jpsmedia worldairports.se 2020   terms of use